createdAt,value
2023-02-05T00:01:16.445Z,99001.56942630364
2023-02-05T00:04:17.714Z,98997.01748824258
2023-02-05T00:07:17.020Z,98998.90575976766
2023-02-05T00:11:16.346Z,99002.39411322048
2023-02-05T00:14:16.761Z,99000.49287636962
2023-02-05T00:17:16.606Z,98999.33738293187
2023-02-05T00:21:18.053Z,99006.41803816958
2023-02-05T00:24:16.842Z,99001.52305303393
2023-02-05T00:27:16.845Z,98998.41294042124
2023-02-05T00:31:18.311Z,98994.35174644088
2023-02-05T00:34:16.530Z,98995.19227747455
2023-02-05T00:37:16.660Z,98993.77344590724
2023-02-05T00:41:17.255Z,98994.31645922465
2023-02-05T00:44:16.828Z,98999.5949482088
2023-02-05T00:47:16.711Z,99001.81827834768
2023-02-05T00:51:16.516Z,99000.32412153164
2023-02-05T00:54:16.682Z,98996.13669073969
2023-02-05T00:57:17.333Z,98997.85654439901
2023-02-05T01:01:16.886Z,99000.93926223082
2023-02-05T01:04:16.182Z,98997.64707712151
2023-02-05T01:07:16.733Z,98998.65925159349
2023-02-05T01:11:16.302Z,99001.93686263693
2023-02-05T01:14:16.441Z,99002.36872357449
2023-02-05T01:17:16.757Z,98990.25989106066
2023-02-05T01:21:16.574Z,98992.14091115333
2023-02-05T01:24:16.830Z,98988.14973756301
2023-02-05T01:27:16.879Z,98987.03930028087
2023-02-05T01:31:16.843Z,98987.8349089435
2023-02-05T01:34:16.685Z,98979.25135828629
2023-02-05T01:37:16.718Z,98978.59945195548
2023-02-05T01:41:16.636Z,98976.62594463077
2023-02-05T01:44:20.975Z,98978.43385290063
2023-02-05T01:47:16.739Z,98976.89737294403
2023-02-05T01:51:17.111Z,98969.78212538834
2023-02-05T01:54:20.405Z,98967.43122241984
2023-02-05T01:57:19.913Z,98969.68601583403
2023-02-05T02:01:16.698Z,98962.84966184384
2023-02-05T02:04:33.918Z,98960.10330412336
2023-02-05T02:07:22.202Z,98967.76058661946
2023-02-05T02:11:21.022Z,98962.92465599734
2023-02-05T02:14:16.930Z,98969.29176653115
2023-02-05T02:17:17.618Z,98961.9030828421
2023-02-05T02:21:34.481Z,98958.05613905261
2023-02-05T02:25:04.181Z,98955.07267864553
2023-02-05T02:27:43.900Z,98965.01238869036
2023-02-05T02:31:21.725Z,98953.84323636521
2023-02-05T02:34:26.339Z,98952.25554516939
2023-02-05T02:37:24.612Z,98958.94426713687
2023-02-05T02:41:23.924Z,98954.3906261596
2023-02-05T02:44:22.749Z,98957.74464031107
2023-02-05T02:47:20.507Z,98949.11578795401
2023-02-05T02:51:19.708Z,98956.01320841265
2023-02-05T02:54:20.112Z,98960.93405311751
2023-02-05T02:57:19.291Z,98970.66127170896
2023-02-05T03:01:23.346Z,98971.27572808383
2023-02-05T03:04:22.732Z,98969.435564403
2023-02-05T03:07:22.166Z,98976.63602984099
2023-02-05T03:11:16.895Z,98962.82980604227
2023-02-05T03:14:17.232Z,98967.2531010159
2023-02-05T03:17:20.690Z,98974.36690179797
2023-02-05T03:21:19.868Z,98971.85626318806
2023-02-05T03:24:17.698Z,98979.31483785478
2023-02-05T03:27:17.171Z,98978.47311593754
2023-02-05T03:31:19.791Z,98981.91334335106
2023-02-05T03:34:31.006Z,98979.82665990079
2023-02-05T03:37:26.791Z,98993.0949767986
2023-02-05T03:41:22.086Z,98998.73309624389
2023-02-05T03:44:25.177Z,99000.83200202993
2023-02-05T03:47:31.062Z,99007.17165926205
2023-02-05T03:51:25.391Z,99003.47314385611
2023-02-05T03:54:25.582Z,99005.65155775553
2023-02-05T03:57:24.016Z,99007.84582726823
2023-02-05T04:01:17.593Z,99009.51040959885
2023-02-05T04:04:16.909Z,99003.02789328856
2023-02-05T04:07:16.415Z,99012.01169993066
2023-02-05T04:11:16.341Z,99010.56837640464
2023-02-05T04:14:16.674Z,99009.94936019424
2023-02-05T04:17:16.682Z,99024.42761282448
2023-02-05T04:21:16.245Z,99021.62277001308
2023-02-05T04:24:16.808Z,99025.94271647892
2023-02-05T04:27:16.746Z,99024.32826793646
2023-02-05T04:31:16.196Z,99027.30240416278
2023-02-05T04:34:16.615Z,99025.68164410778
2023-02-05T04:37:16.485Z,99034.59005243439
2023-02-05T04:41:16.310Z,99050.55397641793
2023-02-05T04:44:16.729Z,99057.06986682552
2023-02-05T04:47:16.708Z,99061.38790545899
2023-02-05T04:51:17.881Z,99064.82941101922
2023-02-05T04:54:16.937Z,99073.46493591533
2023-02-05T04:57:17.149Z,99073.00527450375
2023-02-05T05:01:18.646Z,99078.39010719613
2023-02-05T05:04:16.544Z,99082.43529401669
2023-02-05T05:07:17.008Z,99089.17554619006
2023-02-05T05:11:18.181Z,99093.86575811171
2023-02-05T05:14:16.514Z,99098.09767796609
2023-02-05T05:17:16.594Z,99107.04667927623
2023-02-05T05:21:16.525Z,99104.7731358662
2023-02-05T05:24:16.859Z,99103.98811190871
2023-02-05T05:27:17.320Z,99108.1090938997
2023-02-05T05:31:17.017Z,99116.6952635867
2023-02-05T05:34:17.072Z,99128.25803978549
2023-02-05T05:37:17.002Z,99129.31008979374
2023-02-05T05:51:16.604Z,99142.82905344368
2023-02-05T05:54:16.556Z,99142.72713593212
2023-02-05T05:57:16.651Z,99143.44918966205
2023-02-05T06:01:17.685Z,99143.0410076252
2023-02-05T06:04:16.768Z,99140.85741617574
2023-02-05T06:07:16.765Z,99143.46160588757
2023-02-05T06:11:16.731Z,99140.10769607901
2023-02-05T06:14:17.074Z,99148.75383234477
2023-02-05T06:17:17.032Z,99142.74630777027
2023-02-05T06:21:16.666Z,99144.64992193937
2023-02-05T06:24:17.246Z,99150.59235820641
2023-02-05T06:27:17.138Z,99153.50123346987
2023-02-05T06:31:17.843Z,99154.60987527856
2023-02-05T06:34:16.745Z,99157.10618918351
2023-02-05T06:37:16.710Z,99158.14941957091
2023-02-05T06:41:15.901Z,99165.37628339654
2023-02-05T06:44:16.310Z,99164.17550448597
2023-02-05T06:47:17.598Z,99167.45950330952
2023-02-05T06:51:16.188Z,99169.61544858137
2023-02-05T07:01:16.839Z,99175.06132595746
2023-02-05T07:04:16.842Z,99171.17430397106
2023-02-05T07:07:17.608Z,99179.72968979756
2023-02-05T07:11:16.985Z,99182.2578760207
2023-02-05T07:14:17.041Z,99189.46942005512
2023-02-05T07:17:16.916Z,99192.50927499213
2023-02-05T07:21:16.609Z,99194.76685205495
2023-02-05T07:24:16.721Z,99197.57776307521
2023-02-05T07:27:16.913Z,99193.57954542148
2023-02-05T07:31:18.614Z,99204.85894360836
2023-02-05T07:34:17.035Z,99203.99401092049
2023-02-05T07:37:16.634Z,99199.25060850475
2023-02-05T07:41:17.092Z,99202.12022507851
2023-02-05T07:44:16.501Z,99203.0822828464
2023-02-05T07:47:16.537Z,99207.78101816362
2023-02-05T07:51:18.593Z,99208.72788332785
2023-02-05T07:54:16.539Z,99213.81228499542
2023-02-05T07:57:16.424Z,99224.26480049643
2023-02-05T08:11:17.627Z,99225.3033323246
2023-02-05T08:14:16.265Z,99218.72232599965
2023-02-05T08:17:16.813Z,99216.5662924315
2023-02-05T08:21:16.889Z,99221.6050933826
2023-02-05T08:24:16.988Z,99225.02243434214
2023-02-05T08:27:16.922Z,99229.8350469803
2023-02-05T08:31:18.568Z,99229.92530263023
2023-02-05T08:34:20.974Z,99231.77296522696
2023-02-05T08:37:18.158Z,99233.71397493812
2023-02-05T08:41:16.710Z,99239.69264082432
2023-02-05T08:44:16.880Z,99237.12537195907
2023-02-05T08:47:19.186Z,99244.33951489316
2023-02-05T08:51:16.910Z,99241.8146062862
2023-02-05T08:54:17.173Z,99244.86967175221
2023-02-05T08:57:17.224Z,99241.76095317947
2023-02-05T09:01:18.377Z,99246.35240652124
2023-02-05T09:04:19.609Z,99245.80218049168
2023-02-05T09:07:17.576Z,99244.75151516341
2023-02-05T09:11:21.003Z,99231.98247100464
2023-02-05T09:14:18.194Z,99229.58933399736
2023-02-05T09:17:18.638Z,99225.40149564549
2023-02-05T09:21:16.990Z,99215.92393194763
2023-02-05T09:24:17.140Z,99213.2159166355
2023-02-05T09:27:17.302Z,99212.51751937813
2023-02-05T09:31:18.825Z,99210.40450538787
2023-02-05T09:34:17.513Z,99207.59473758156
2023-02-05T09:37:17.745Z,99212.67453205782
2023-02-05T09:41:25.831Z,99214.96086439567
2023-02-05T09:44:26.534Z,99214.26308533402
2023-02-05T09:47:23.792Z,99211.85050210805
2023-02-05T09:51:19.902Z,99212.6522920557
2023-02-05T09:54:21.587Z,99214.11330351979
2023-02-05T09:57:29.138Z,99216.38969979374
2023-02-05T10:01:23.470Z,99209.23310037277
2023-02-05T10:04:17.906Z,99212.25719461172
2023-02-05T10:07:27.702Z,99212.29461435621
2023-02-05T10:11:24.596Z,99209.3248246954
2023-02-05T10:14:24.725Z,99204.22345274028
2023-02-05T10:17:30.572Z,99208.71808108209
2023-02-05T10:21:32.255Z,99205.42523537036
2023-02-05T10:24:35.777Z,99201.84415783019
2023-02-05T10:27:21.390Z,99192.86944221727
2023-02-05T10:31:27.144Z,99189.3150586927
2023-02-05T10:34:34.269Z,99183.06124033302
2023-02-05T10:37:19.063Z,99173.56080611958
2023-02-05T10:41:22.898Z,99163.14669737882
2023-02-05T10:44:24.458Z,99154.38027572967
2023-02-05T10:47:24.600Z,99142.99015559356
2023-02-05T10:51:22.206Z,99148.71497848796
2023-02-05T10:54:23.045Z,99138.3690940204
2023-02-05T10:57:19.337Z,99137.34659894969
2023-02-05T11:01:19.209Z,99127.22257442439
2023-02-05T11:04:21.358Z,99124.44523337997
2023-02-05T11:07:22.861Z,99117.28012698793
2023-02-05T11:11:23.007Z,99113.75302719793
2023-02-05T11:14:26.406Z,99126.04635087078
2023-02-05T11:17:21.888Z,99116.58395825783
2023-02-05T11:21:16.363Z,99112.02016234776
2023-02-05T11:24:27.774Z,99115.47663984349
2023-02-05T11:27:28.320Z,99107.62498859181
2023-02-05T11:31:20.415Z,99110.3434870303
2023-02-05T11:34:17.958Z,99109.90592982958
2023-02-05T11:37:18.748Z,99094.04056074038
2023-02-05T11:41:27.922Z,99098.86660081534
2023-02-05T11:44:20.994Z,99099.32411908571
2023-02-05T11:47:26.635Z,99089.47039407952
2023-02-05T11:51:35.567Z,99077.22364559954
2023-02-05T11:54:21.918Z,99079.86271446363
2023-02-05T11:57:34.659Z,99074.88986119031
2023-02-05T12:01:22.638Z,99078.50599381451
2023-02-05T12:04:19.407Z,99073.76177689311
2023-02-05T12:07:19.446Z,99070.11961938831
2023-02-05T12:11:27.434Z,99068.57399367802
2023-02-05T12:14:25.685Z,99055.7147553104
2023-02-05T12:17:31.011Z,99054.20822087643
2023-02-05T12:21:26.911Z,99049.75164918837
2023-02-05T12:25:26.630Z,99047.4014842127
2023-02-05T12:27:29.165Z,99033.25305824188
2023-02-05T12:31:24.528Z,99036.55550681977
2023-02-05T12:34:24.326Z,99029.08799601167
2023-02-05T12:37:27.522Z,99026.14580266361
2023-02-05T12:41:29.346Z,99018.45115909925
2023-02-05T12:44:32.705Z,99007.51845856824
2023-02-05T12:47:37.145Z,99009.20149384887
2023-02-05T12:51:29.028Z,99015.63375962463
2023-02-05T12:54:34.867Z,99019.08017648279
2023-02-05T12:57:21.354Z,99012.30977029307
2023-02-05T13:01:20.979Z,99012.34421512338
2023-02-05T13:04:24.469Z,99012.12070644858
2023-02-05T13:07:28.230Z,99011.11582634132
2023-02-05T13:11:20.538Z,98992.91335474128
2023-02-05T13:14:25.575Z,98982.47776831442
2023-02-05T13:17:20.574Z,98985.45766882708
2023-02-05T13:31:25.582Z,98971.37867516572
2023-02-05T13:34:18.508Z,98966.69966092848
2023-02-05T13:37:33.926Z,98965.2317341973
2023-02-05T13:41:32.280Z,98958.96235163452
2023-02-05T13:44:37.976Z,98961.95231966973
2023-02-05T13:47:39.919Z,98963.9987770699
2023-02-05T13:51:30.287Z,98961.84389925843
2023-02-05T13:54:46.120Z,98951.86502842579
2023-02-05T14:01:24.587Z,98957.82686614982
2023-02-05T14:04:22.216Z,98958.28762939411
2023-02-05T14:07:22.135Z,98954.6329637645
2023-02-05T14:11:17.335Z,98957.77507947676
2023-02-05T14:14:29.052Z,98951.6562779553
2023-02-05T14:18:09.718Z,98960.06835046594
2023-02-05T14:21:58.249Z,98966.65971627255
2023-02-05T14:24:49.845Z,98953.21864131588
2023-02-05T14:27:50.329Z,98953.99891900417
2023-02-05T14:31:49.200Z,98950.42931625544
2023-02-05T14:34:58.409Z,98956.98890711427
2023-02-05T14:37:35.703Z,98952.61223682562
2023-02-05T14:41:22.337Z,98950.3905993621
2023-02-05T14:44:20.784Z,98941.26974923888
2023-02-05T14:47:22.020Z,98939.55116692615
2023-02-05T14:51:26.288Z,98947.86506933668
2023-02-05T14:54:21.804Z,98954.7534530132
2023-02-05T14:57:26.248Z,98966.1547369485
2023-02-05T15:01:53.335Z,98966.05398197683
2023-02-05T15:04:29.250Z,98955.45331776283
2023-02-05T15:07:21.741Z,98951.26563833849
2023-02-05T15:11:27.923Z,98947.27308409807
2023-02-05T15:14:39.759Z,98947.82734530349
2023-02-05T15:17:52.063Z,98950.33351130177
2023-02-05T15:21:24.058Z,98954.89103891868
2023-02-05T15:24:19.945Z,98949.7659778008
2023-02-05T15:27:32.853Z,98948.42981383264
2023-02-05T15:31:30.811Z,98953.20939381038
2023-02-05T15:34:29.717Z,98947.47186388625
2023-02-05T15:37:22.808Z,98948.01670137185
2023-02-05T15:41:21.761Z,98951.55647871154
2023-02-05T15:44:21.570Z,98953.67452266892
2023-02-05T15:47:21.661Z,98948.75394005406
2023-02-05T15:51:25.507Z,98966.59801569444
2023-02-05T15:54:20.385Z,98964.29052096301
2023-02-05T15:57:22.220Z,98955.79239863479
2023-02-05T16:01:29.119Z,98955.61612549404
2023-02-05T16:04:19.360Z,98956.25344379884
2023-02-05T16:07:20.612Z,98951.26643748631
2023-02-05T16:11:27.123Z,98963.22710514715
2023-02-05T16:14:21.631Z,98951.96868772405
2023-02-05T16:17:21.817Z,98959.40204111487
2023-02-05T16:21:23.761Z,98960.63758421456
2023-02-05T16:24:25.074Z,98955.81803477147
2023-02-05T16:27:25.137Z,98961.27030257075
2023-02-05T16:31:20.486Z,98971.68595175116
2023-02-05T16:34:19.518Z,98990.4325903072
2023-02-05T16:37:20.108Z,98999.66329303144
2023-02-05T16:41:22.470Z,98997.49237372537
2023-02-05T16:44:28.733Z,99000.05961701255
2023-02-05T16:47:20.741Z,99000.53742732546
2023-02-05T16:51:38.146Z,99003.4215718782
2023-02-05T16:54:28.304Z,99009.95221314556
2023-02-05T16:57:26.794Z,99013.80599490806
2023-02-05T17:01:22.281Z,99012.46678026312
2023-02-05T17:04:33.266Z,99011.5736744733
2023-02-05T17:07:19.970Z,99008.36682831668
2023-02-05T17:11:35.102Z,99016.19616313236
2023-02-05T17:14:26.366Z,99021.05133742496
2023-02-05T17:17:18.407Z,99030.44743201588
2023-02-05T17:21:24.543Z,99043.76549660551
2023-02-05T17:24:19.388Z,99049.69734943246
2023-02-05T17:27:22.307Z,99047.60463891919
2023-02-05T17:31:18.271Z,99056.83546303246
2023-02-05T17:34:16.538Z,99051.24811447873
2023-02-05T17:37:16.604Z,99045.96227958894
2023-02-05T17:42:23.162Z,99038.67845506313
2023-02-05T17:44:17.018Z,99039.6907836122
2023-02-05T17:47:19.201Z,99037.16006124893
2023-02-05T17:51:19.538Z,99052.01808681551
2023-02-05T17:54:21.660Z,99054.03973941715
2023-02-05T17:57:18.698Z,99046.88204025645
2023-02-05T18:01:18.272Z,99060.58677865153
2023-02-05T18:04:19.594Z,99069.12950122429
2023-02-05T18:07:26.404Z,99076.92301488892
2023-02-05T18:11:16.340Z,99078.64355617328
2023-02-05T18:14:18.306Z,99069.93822346356
2023-02-05T18:17:20.121Z,99058.20878585655
2023-02-05T18:21:18.702Z,99063.648697251
2023-02-05T18:24:20.376Z,99076.12842301166
2023-02-05T18:27:19.576Z,99080.31050011168
2023-02-05T18:31:16.257Z,99072.06900973205
2023-02-05T18:34:16.491Z,99067.57160119778
2023-02-05T18:37:17.140Z,99064.76273741157
2023-02-05T18:41:19.012Z,99058.65385178204
2023-02-05T18:44:16.688Z,99055.8731201934
2023-02-05T18:47:16.611Z,99069.28663866826
2023-02-05T18:51:18.788Z,99068.6773932813
2023-02-05T18:54:16.971Z,99065.07981898251
2023-02-05T18:57:17.196Z,99059.51700125478
2023-02-05T19:01:17.273Z,99064.73652554299
2023-02-05T19:04:19.704Z,99064.14538419094
2023-02-05T19:07:16.837Z,99074.51321856401
2023-02-05T19:11:20.299Z,99081.05530169269
2023-02-05T19:14:18.967Z,99091.21395244382
2023-02-05T19:17:17.036Z,99095.20673549532
2023-02-05T19:21:18.476Z,99093.7421205167
2023-02-05T19:24:18.800Z,99094.6598077975
2023-02-05T19:27:18.420Z,99098.03001785305
2023-02-05T19:31:16.406Z,99107.71514679407
2023-02-05T19:34:16.842Z,99107.17402747684
2023-02-05T19:37:18.203Z,99110.35208449903
2023-02-05T19:41:18.531Z,99114.40412447487
2023-02-05T19:44:18.631Z,99109.82313283173
2023-02-05T19:47:17.716Z,99106.48559384646
2023-02-05T19:51:16.508Z,99117.44765881337
2023-02-05T19:54:19.479Z,99116.57826979071
2023-02-05T19:57:16.819Z,99111.47584587407
2023-02-05T20:01:19.423Z,99101.90721497627
2023-02-05T20:04:20.263Z,99110.38059913788
2023-02-05T20:07:17.153Z,99117.11494283368
2023-02-05T20:11:17.564Z,99137.06988974393
2023-02-05T20:14:17.521Z,99145.83931860485
2023-02-05T20:17:18.053Z,99145.99592643401
2023-02-05T20:21:17.358Z,99150.93802192557
2023-02-05T20:24:16.565Z,99149.84166976159
2023-02-05T20:27:16.447Z,99154.80724338333
2023-02-05T20:31:50.340Z,99163.9149120928
2023-02-05T20:34:20.115Z,99177.75942358811
2023-02-05T20:37:17.238Z,99182.73315503038
2023-02-05T20:41:17.386Z,99186.9711523145
2023-02-05T20:44:17.209Z,99194.13097301275
2023-02-05T20:47:16.820Z,99178.36653785949
2023-02-05T20:51:20.569Z,99178.69246918744
2023-02-05T20:54:16.342Z,99176.00643102477
2023-02-05T20:57:16.349Z,99178.9799177629
2023-02-05T21:01:19.832Z,99173.99596384449
2023-02-05T21:04:16.344Z,99179.43726949318
2023-02-05T21:07:16.275Z,99186.76071324991
2023-02-05T21:11:17.251Z,99198.70179104988
2023-02-05T21:14:16.331Z,99203.52841408648
2023-02-05T21:17:16.117Z,99203.64584273948
2023-02-05T21:21:20.231Z,99198.9444147038
2023-02-05T21:24:17.621Z,99210.0381779164
2023-02-05T21:27:17.452Z,99209.45304862669
2023-02-05T21:31:16.530Z,99207.01863216725
2023-02-05T21:34:18.628Z,99214.06875238202
2023-02-05T21:37:16.881Z,99224.47721360535
2023-02-05T21:41:18.058Z,99225.78374685982
2023-02-05T21:44:16.973Z,99232.21008717711
2023-02-05T21:47:16.872Z,99230.89566977443
2023-02-05T21:51:17.591Z,99239.13788856564
2023-02-05T21:54:16.283Z,99241.34124902278
2023-02-05T21:57:17.960Z,99245.30016472866
2023-02-05T22:01:17.758Z,99245.49265948699
2023-02-05T22:04:16.253Z,99246.584654892
2023-02-05T22:07:15.993Z,99248.33994480876
2023-02-05T22:11:18.207Z,99243.98686150037
2023-02-05T22:14:16.890Z,99251.30496162432
2023-02-05T22:17:16.742Z,99253.03757277147
2023-02-05T22:21:18.486Z,99258.28274701558
2023-02-05T22:24:18.561Z,99263.19196508297
2023-02-05T22:27:16.495Z,99263.62514647552
2023-02-05T22:31:19.997Z,99251.76830889423
2023-02-05T22:34:17.416Z,99251.43590816068
2023-02-05T22:37:17.042Z,99235.70522385759
2023-02-05T22:41:18.985Z,99249.56272757391
2023-02-05T22:44:17.380Z,99248.20301626125
2023-02-05T22:47:16.648Z,99249.93689427829
2023-02-05T22:51:18.835Z,99245.52604224229
2023-02-05T22:54:16.762Z,99245.72944727307
2023-02-05T22:57:16.840Z,99247.85441957749
2023-02-05T23:01:18.347Z,99246.89754286766
2023-02-05T23:04:16.154Z,99242.8131751853
2023-02-05T23:07:16.206Z,99248.07783903679
